createdAt,value
2023-05-02T00:02:13.201Z,6.60
2023-05-02T00:04:41.115Z,6.97
2023-05-02T00:07:09.053Z,7.15
2023-05-02T00:09:37.214Z,6.43
2023-05-02T00:12:06.786Z,6.32
2023-05-02T00:14:34.806Z,6.30
2023-05-02T00:17:02.689Z,6.15
2023-05-02T00:19:30.640Z,6.32
2023-05-02T00:21:58.434Z,6.43
2023-05-02T00:24:27.187Z,6.72
2023-05-02T00:26:54.930Z,5.88
2023-05-02T00:29:24.322Z,6.93
2023-05-02T00:31:52.077Z,5.88
2023-05-02T00:34:19.906Z,5.85
2023-05-02T00:36:48.871Z,6.50
2023-05-02T00:39:16.874Z,6.68
2023-05-02T00:41:44.642Z,6.28
2023-05-02T00:44:12.610Z,6.45
2023-05-02T00:46:42.188Z,6.47
2023-05-02T00:49:10.283Z,6.50
2023-05-02T00:51:38.373Z,6.60
2023-05-02T00:54:07.034Z,5.90
2023-05-02T00:56:34.858Z,5.68
2023-05-02T00:59:02.832Z,6.07
2023-05-02T01:01:35.470Z,6.43
2023-05-02T01:04:10.914Z,4.95
2023-05-02T01:06:46.679Z,5.85
2023-05-02T01:09:23.239Z,5.80
2023-05-02T01:11:54.936Z,5.47
2023-05-02T01:14:23.877Z,5.93
2023-05-02T01:16:53.734Z,5.30
2023-05-02T01:19:27.430Z,5.65
2023-05-02T01:21:56.149Z,5.93
2023-05-02T01:24:26.265Z,5.03
2023-05-02T01:26:59.899Z,5.25
2023-05-02T01:29:30.212Z,5.65
2023-05-02T01:31:59.343Z,5.28
2023-05-02T01:34:28.755Z,6.28
2023-05-02T01:36:58.806Z,5.30
2023-05-02T01:39:26.899Z,5.75
2023-05-02T01:41:57.102Z,6.10
2023-05-02T01:44:25.380Z,5.65
2023-05-02T01:46:55.859Z,5.82
2023-05-02T01:49:24.593Z,5.68
2023-05-02T01:51:53.092Z,5.57
2023-05-02T01:54:22.329Z,6.18
2023-05-02T01:56:50.617Z,5.40
2023-05-02T01:59:20.512Z,5.63
2023-05-02T02:01:49.622Z,5.78
2023-05-02T02:04:20.746Z,5.75
2023-05-02T02:06:56.694Z,5.82
2023-05-02T02:09:24.659Z,5.60
2023-05-02T02:11:58.207Z,5.18
2023-05-02T02:14:27.070Z,4.38
2023-05-02T02:16:57.841Z,4.50
2023-05-02T02:19:27.387Z,4.15
2023-05-02T02:21:56.206Z,4.82
2023-05-02T02:24:24.995Z,4.47
2023-05-02T02:26:53.299Z,4.03
2023-05-02T02:29:21.348Z,4.80
2023-05-02T02:31:49.238Z,4.60
2023-05-02T02:34:17.037Z,4.70
2023-05-02T02:36:48.917Z,4.43
2023-05-02T02:39:22.681Z,5.47
2023-05-02T02:41:57.116Z,4.32
2023-05-02T02:44:29.325Z,4.15
2023-05-02T02:47:02.610Z,4.03
2023-05-02T02:49:36.605Z,4.55
2023-05-02T02:52:10.732Z,4.88
2023-05-02T02:54:41.306Z,4.32
2023-05-02T02:57:16.351Z,4.93
2023-05-02T02:59:48.137Z,4.32
2023-05-02T03:02:18.425Z,4.22
2023-05-02T03:04:47.649Z,4.70
2023-05-02T03:07:16.951Z,4.55
2023-05-02T03:09:45.161Z,4.85
2023-05-02T03:12:13.247Z,4.50
2023-05-02T03:14:41.465Z,4.78
2023-05-02T03:17:09.337Z,4.53
2023-05-02T03:19:37.546Z,5.05
2023-05-02T03:22:05.355Z,4.68
2023-05-02T03:24:34.448Z,3.95
2023-05-02T03:27:04.074Z,5.00
2023-05-02T03:29:31.797Z,4.40
2023-05-02T03:31:59.634Z,4.13
2023-05-02T03:34:27.825Z,4.47
2023-05-02T03:36:55.555Z,4.60
2023-05-02T03:39:23.823Z,3.70
2023-05-02T03:41:51.809Z,4.10
2023-05-02T03:44:21.262Z,4.15
2023-05-02T03:46:49.368Z,4.55
2023-05-02T03:49:17.623Z,3.85
2023-05-02T03:51:45.634Z,4.13
2023-05-02T03:54:13.680Z,4.25
2023-05-02T03:56:42.796Z,4.55
2023-05-02T03:59:10.854Z,4.40
2023-05-02T04:01:40.197Z,5.03
2023-05-02T04:04:08.743Z,5.05
2023-05-02T04:06:36.883Z,4.43
2023-05-02T04:09:04.680Z,4.63
2023-05-02T04:11:32.438Z,5.32
2023-05-02T04:14:00.667Z,5.15
2023-05-02T04:16:28.516Z,5.15
2023-05-02T04:18:57.722Z,5.38
2023-05-02T04:21:25.801Z,6.32
2023-05-02T04:23:53.772Z,5.70
2023-05-02T04:26:21.697Z,5.53
2023-05-02T04:28:49.835Z,4.95
2023-05-02T04:31:18.285Z,6.15
2023-05-02T04:33:46.093Z,4.95
2023-05-02T04:36:15.281Z,5.07
2023-05-02T04:38:43.153Z,5.00
2023-05-02T04:41:11.090Z,5.13
2023-05-02T04:43:38.864Z,5.78
2023-05-02T04:46:06.944Z,5.75
2023-05-02T04:48:34.718Z,4.65
2023-05-02T04:51:02.524Z,4.95
2023-05-02T04:53:31.756Z,5.25
2023-05-02T04:55:59.495Z,5.22
2023-05-02T04:58:27.492Z,5.55
2023-05-02T05:00:56.037Z,5.78
2023-05-02T05:03:24.763Z,6.13
2023-05-02T05:05:52.651Z,6.30
2023-05-02T05:08:20.453Z,5.32
2023-05-02T05:10:49.546Z,5.63
2023-05-02T05:13:17.544Z,5.90
2023-05-02T05:15:45.740Z,6.00
2023-05-02T05:18:13.748Z,6.13
2023-05-02T05:20:41.762Z,5.75
2023-05-02T05:23:10.005Z,5.65
2023-05-02T05:25:37.755Z,4.95
2023-05-02T05:28:06.929Z,5.45
2023-05-02T05:30:34.834Z,5.32
2023-05-02T05:33:03.163Z,5.95
2023-05-02T05:35:32.090Z,5.95
2023-05-02T05:38:00.116Z,6.53
2023-05-02T05:40:27.929Z,5.32
2023-05-02T05:42:55.859Z,5.95
2023-05-02T05:45:24.981Z,5.18
2023-05-02T05:47:55.153Z,5.38
2023-05-02T05:50:23.222Z,4.80
2023-05-02T05:52:51.015Z,5.85
2023-05-02T05:55:18.944Z,5.82
2023-05-02T05:57:46.699Z,5.47
2023-05-02T06:00:15.191Z,5.57
2023-05-02T06:02:44.682Z,5.32
2023-05-02T06:05:12.634Z,5.82
2023-05-02T06:07:40.627Z,6.60
2023-05-02T06:10:09.532Z,5.25
2023-05-02T06:12:37.337Z,6.97
2023-05-02T06:15:05.703Z,6.47
2023-05-02T06:17:33.475Z,6.22
2023-05-02T06:20:02.985Z,6.93
2023-05-02T06:22:30.899Z,6.95
2023-05-02T06:24:58.868Z,8.10
2023-05-02T06:27:27.111Z,8.15
2023-05-02T06:29:55.495Z,6.72
2023-05-02T06:32:23.301Z,6.57
2023-05-02T06:34:51.431Z,6.68
2023-05-02T06:37:20.724Z,6.90
2023-05-02T06:39:48.812Z,5.78
2023-05-02T06:42:16.591Z,5.95
2023-05-02T06:44:45.218Z,5.90
2023-05-02T06:47:13.486Z,5.35
2023-05-02T06:49:41.388Z,5.28
2023-05-02T06:52:09.196Z,5.95
2023-05-02T06:54:39.177Z,5.40
2023-05-02T06:57:07.997Z,5.88
2023-05-02T06:59:35.793Z,5.95
2023-05-02T07:02:05.329Z,5.72
2023-05-02T07:04:33.513Z,6.55
2023-05-02T07:07:03.480Z,6.82
2023-05-02T07:09:31.273Z,6.00
2023-05-02T07:12:00.990Z,6.03
2023-05-02T07:14:29.095Z,5.78
2023-05-02T07:16:56.947Z,5.93
2023-05-02T07:19:25.065Z,6.28
2023-05-02T07:21:52.828Z,6.00
2023-05-02T07:24:20.788Z,5.82
2023-05-02T07:26:48.796Z,7.22
2023-05-02T07:29:17.860Z,6.70
2023-05-02T07:31:45.734Z,6.00
2023-05-02T07:34:13.555Z,7.50
2023-05-02T07:36:41.322Z,8.00
2023-05-02T07:39:09.133Z,8.70
2023-05-02T07:41:36.953Z,8.02
2023-05-02T07:44:04.996Z,8.43
2023-05-02T07:46:34.197Z,8.02
2023-05-02T07:49:02.227Z,7.35
2023-05-02T07:51:30.026Z,8.52
2023-05-02T07:53:59.320Z,8.40
2023-05-02T07:56:27.210Z,9.00
2023-05-02T07:58:55.128Z,8.90
2023-05-02T08:01:22.920Z,8.50
2023-05-02T08:03:52.506Z,8.68
2023-05-02T08:06:20.589Z,9.75
2023-05-02T08:08:48.607Z,9.23
2023-05-02T08:11:16.373Z,8.35
2023-05-02T08:13:44.468Z,8.57
2023-05-02T08:16:12.873Z,8.30
2023-05-02T08:18:41.445Z,7.00
2023-05-02T08:21:10.706Z,7.10
2023-05-02T08:23:38.474Z,7.35
2023-05-02T08:26:06.247Z,6.60
2023-05-02T08:28:34.055Z,6.15
2023-05-02T08:31:01.853Z,5.00
2023-05-02T08:33:29.585Z,5.85
2023-05-02T08:35:57.350Z,6.10
2023-05-02T08:38:26.927Z,7.85
2023-05-02T08:40:54.746Z,7.40
2023-05-02T08:43:22.608Z,7.05
2023-05-02T08:45:50.878Z,7.45
2023-05-02T08:48:19.172Z,6.55
2023-05-02T08:50:48.494Z,8.85
2023-05-02T08:53:16.417Z,7.22
2023-05-02T08:55:47.985Z,6.82
2023-05-02T08:58:17.482Z,7.15
2023-05-02T09:00:47.793Z,6.05
2023-05-02T09:03:23.588Z,10.48
2023-05-02T09:05:53.853Z,9.60
2023-05-02T09:08:25.086Z,7.32
2023-05-02T09:10:54.220Z,6.55
2023-05-02T09:13:32.090Z,7.30
2023-05-02T09:16:00.781Z,6.80
2023-05-02T09:18:32.442Z,6.78
2023-05-02T09:21:01.247Z,13.27
2023-05-02T09:23:39.055Z,9.15
2023-05-02T09:26:19.224Z,7.05
2023-05-02T09:28:48.136Z,7.40
2023-05-02T09:31:26.888Z,7.20
2023-05-02T09:34:09.813Z,7.03
2023-05-02T09:36:40.474Z,7.35
2023-05-02T09:39:10.301Z,5.90
2023-05-02T09:41:42.629Z,6.18
2023-05-02T09:44:10.931Z,7.60
2023-05-02T09:46:42.346Z,7.03
2023-05-02T09:49:11.107Z,7.13
2023-05-02T09:51:39.059Z,6.80
2023-05-02T09:54:06.923Z,6.97
2023-05-02T09:56:52.634Z,6.47
2023-05-02T09:59:24.100Z,7.70
2023-05-02T10:01:58.323Z,6.50
2023-05-02T10:04:27.054Z,5.80
2023-05-02T10:06:55.647Z,6.13
2023-05-02T10:09:23.860Z,6.00
2023-05-02T10:11:53.075Z,4.65
2023-05-02T10:14:22.772Z,5.40
2023-05-02T10:16:55.055Z,4.97
2023-05-02T10:19:25.125Z,4.65
2023-05-02T10:21:53.455Z,2.38
2023-05-02T10:24:21.916Z,1.77
2023-05-02T10:26:50.220Z,2.13
2023-05-02T10:29:17.995Z,2.22
2023-05-02T10:31:48.026Z,2.22
2023-05-02T10:34:17.222Z,1.08
2023-05-02T10:36:45.225Z,2.45
2023-05-02T10:39:13.391Z,1.98
2023-05-02T10:41:42.143Z,2.45
2023-05-02T10:44:10.048Z,1.30
2023-05-02T10:46:40.886Z,1.10
2023-05-02T10:49:11.216Z,1.35
2023-05-02T10:51:39.953Z,1.33
2023-05-02T10:54:20.409Z,1.52
2023-05-02T10:57:05.601Z,1.23
2023-05-02T10:59:34.690Z,0.82
2023-05-02T11:02:04.520Z,1.10
2023-05-02T11:04:52.510Z,0.98
2023-05-02T11:07:21.998Z,1.30
2023-05-02T11:09:50.077Z,1.33
2023-05-02T11:12:32.744Z,1.65
2023-05-02T11:15:00.853Z,1.38
2023-05-02T11:17:28.927Z,1.65
2023-05-02T11:20:29.951Z,1.50
2023-05-02T11:23:22.842Z,1.25
2023-05-02T11:25:51.009Z,1.83
2023-05-02T11:28:37.408Z,1.88
2023-05-02T11:31:06.520Z,1.95
2023-05-02T11:33:34.551Z,1.90
2023-05-02T11:36:02.673Z,2.70
2023-05-02T11:38:37.288Z,2.90
2023-05-02T11:41:05.716Z,3.75
2023-05-02T11:43:33.700Z,4.40
2023-05-02T11:46:02.535Z,4.07
2023-05-02T11:48:31.462Z,4.22
2023-05-02T11:51:02.614Z,4.53
2023-05-02T11:53:31.645Z,5.20
2023-05-02T11:56:01.615Z,5.47
2023-05-02T11:58:32.831Z,5.80
2023-05-02T12:01:01.266Z,5.40
2023-05-02T12:03:30.350Z,6.18
2023-05-02T12:05:59.271Z,7.03
2023-05-02T12:08:28.051Z,6.75
2023-05-02T12:10:56.428Z,5.88
2023-05-02T12:13:27.190Z,5.95
2023-05-02T12:15:55.425Z,5.97
2023-05-02T12:18:24.666Z,5.80
2023-05-02T12:20:53.022Z,5.40
2023-05-02T12:23:21.905Z,5.93
2023-05-02T12:25:50.243Z,5.95
2023-05-02T12:28:18.991Z,5.28
2023-05-02T12:30:50.409Z,5.53
2023-05-02T12:33:18.525Z,5.38
2023-05-02T12:35:47.660Z,4.80
2023-05-02T12:38:16.665Z,4.75
2023-05-02T12:40:48.314Z,4.07
2023-05-02T12:43:16.287Z,3.65
2023-05-02T12:45:44.209Z,3.50
2023-05-02T12:48:23.598Z,3.67
2023-05-02T12:50:51.742Z,4.25
2023-05-02T12:53:38.440Z,4.63
2023-05-02T12:56:07.234Z,4.30
2023-05-02T12:58:45.065Z,4.53
2023-05-02T13:01:13.091Z,5.47
2023-05-02T13:03:42.603Z,5.30
2023-05-02T13:06:11.132Z,5.18
2023-05-02T13:08:39.517Z,5.70
2023-05-02T13:11:07.457Z,5.70
2023-05-02T13:13:35.846Z,4.97
2023-05-02T13:16:03.960Z,4.75
2023-05-02T13:18:31.825Z,4.53
2023-05-02T13:21:01.001Z,4.50
2023-05-02T13:23:28.786Z,5.40
2023-05-02T13:25:56.535Z,5.10
2023-05-02T13:28:24.389Z,5.18
2023-05-02T13:30:52.226Z,4.85
2023-05-02T13:33:20.022Z,4.93
2023-05-02T13:35:47.826Z,5.25
2023-05-02T13:38:16.958Z,5.07
2023-05-02T13:40:45.012Z,4.97
2023-05-02T13:43:14.702Z,5.00
2023-05-02T13:45:42.522Z,5.93
2023-05-02T13:48:10.463Z,7.00
2023-05-02T13:50:39.090Z,6.32
2023-05-02T13:53:06.959Z,5.70
2023-05-02T13:55:36.386Z,4.85
2023-05-02T13:58:04.732Z,4.68
2023-05-02T14:00:32.946Z,4.75
2023-05-02T14:03:01.099Z,5.47
2023-05-02T14:05:28.993Z,5.07
2023-05-02T14:07:57.050Z,5.20
2023-05-02T14:10:25.208Z,4.97
2023-05-02T14:12:54.474Z,5.20
2023-05-02T14:15:22.349Z,5.03
2023-05-02T14:17:50.562Z,4.93
2023-05-02T14:20:18.398Z,5.95
2023-05-02T14:22:46.287Z,6.32
2023-05-02T14:25:15.604Z,4.95
2023-05-02T14:27:44.311Z,4.70
2023-05-02T14:30:14.047Z,4.30
2023-05-02T14:32:41.836Z,4.57
2023-05-02T14:35:10.525Z,4.75
2023-05-02T14:37:38.543Z,5.07
2023-05-02T14:40:07.234Z,3.97
2023-05-02T14:42:35.019Z,4.55
2023-05-02T14:45:02.849Z,4.72
2023-05-02T14:47:32.182Z,4.18
2023-05-02T14:50:01.197Z,4.53
2023-05-02T14:52:29.604Z,4.65
2023-05-02T14:55:00.074Z,4.53
2023-05-02T14:57:28.592Z,4.95
2023-05-02T14:59:56.635Z,4.72
2023-05-02T15:02:24.486Z,5.07
2023-05-02T15:04:54.060Z,4.55
2023-05-02T15:07:22.049Z,5.93
2023-05-02T15:09:49.899Z,4.93
2023-05-02T15:12:17.695Z,4.72
2023-05-02T15:14:45.462Z,4.90
2023-05-02T15:17:13.854Z,4.57
2023-05-02T15:19:41.642Z,5.25
2023-05-02T15:22:10.801Z,4.95
2023-05-02T15:24:39.032Z,4.35
2023-05-02T15:27:06.835Z,4.57
2023-05-02T15:29:34.620Z,4.10
2023-05-02T15:32:02.572Z,4.80
2023-05-02T15:34:30.974Z,4.30
2023-05-02T15:37:00.835Z,4.03
2023-05-02T15:39:30.219Z,5.03
2023-05-02T15:41:58.611Z,3.95
2023-05-02T15:44:27.728Z,4.25
2023-05-02T15:46:56.015Z,4.57
2023-05-02T15:49:24.497Z,5.68
2023-05-02T15:51:52.381Z,4.03
2023-05-02T15:54:20.182Z,4.28
2023-05-02T15:56:49.396Z,4.82
2023-05-02T15:59:17.097Z,13.82
2023-05-02T16:01:44.961Z,7.93
2023-05-02T16:04:12.862Z,6.45
2023-05-02T16:06:42.139Z,5.03
2023-05-02T16:09:10.365Z,4.30
2023-05-02T16:11:38.161Z,4.63
2023-05-02T16:14:09.827Z,3.95
2023-05-02T16:16:37.744Z,3.60
2023-05-02T16:19:12.497Z,3.83
2023-05-02T16:21:41.825Z,3.92
2023-05-02T16:24:10.114Z,3.33
2023-05-02T16:26:37.914Z,3.38
2023-05-02T16:29:07.278Z,2.95
2023-05-02T16:31:35.203Z,3.33
2023-05-02T16:34:03.453Z,3.30
2023-05-02T16:36:31.921Z,3.28
2023-05-02T16:38:59.675Z,3.30
2023-05-02T16:41:27.458Z,4.05
2023-05-02T16:43:55.247Z,3.35
2023-05-02T16:46:24.997Z,3.72
2023-05-02T16:48:53.188Z,4.05
2023-05-02T16:51:21.005Z,3.08
2023-05-02T16:53:48.865Z,3.60
2023-05-02T16:56:16.889Z,3.30
2023-05-02T16:58:44.640Z,3.53
2023-05-02T17:01:12.455Z,3.47
2023-05-02T17:03:42.192Z,4.28
2023-05-02T17:06:10.176Z,2.88
2023-05-02T17:08:38.090Z,2.63
2023-05-02T17:11:07.714Z,2.58
2023-05-02T17:13:35.638Z,2.70
2023-05-02T17:16:03.524Z,3.17
2023-05-02T17:18:31.486Z,2.88
2023-05-02T17:21:02.716Z,2.75
2023-05-02T17:23:31.788Z,2.88
2023-05-02T17:25:59.600Z,3.17
2023-05-02T17:28:27.484Z,2.67
2023-05-02T17:30:56.033Z,3.33
2023-05-02T17:33:25.148Z,2.42
2023-05-02T17:35:52.936Z,3.47
2023-05-02T17:38:22.085Z,2.75
2023-05-02T17:40:50.108Z,3.20
2023-05-02T17:43:18.175Z,3.13
2023-05-02T17:45:45.999Z,2.85
2023-05-02T17:48:14.217Z,3.00
2023-05-02T17:50:42.438Z,2.83
2023-05-02T17:53:10.225Z,3.08
2023-05-02T17:55:39.529Z,2.80
2023-05-02T17:58:07.574Z,4.10
2023-05-02T18:00:35.572Z,3.75
2023-05-02T18:03:04.120Z,3.17
2023-05-02T18:05:32.059Z,3.22
2023-05-02T18:07:59.915Z,3.53
2023-05-02T18:10:28.985Z,4.03
2023-05-02T18:12:58.169Z,3.80
2023-05-02T18:15:27.504Z,3.80
2023-05-02T18:17:56.629Z,3.90
2023-05-02T18:20:24.521Z,3.70
2023-05-02T18:22:52.572Z,4.65
2023-05-02T18:25:20.526Z,4.22
2023-05-02T18:27:48.362Z,4.00
2023-05-02T18:30:17.527Z,4.25
2023-05-02T18:32:45.355Z,4.63
2023-05-02T18:35:13.287Z,5.28
2023-05-02T18:37:41.112Z,4.18
2023-05-02T18:40:09.628Z,4.57
2023-05-02T18:42:37.568Z,3.80
2023-05-02T18:45:06.274Z,3.85
2023-05-02T18:47:36.480Z,4.68
2023-05-02T18:50:04.602Z,4.43
2023-05-02T18:52:32.357Z,4.30
2023-05-02T18:55:01.981Z,3.75
2023-05-02T18:57:30.459Z,3.78
2023-05-02T18:59:59.452Z,4.28
2023-05-02T19:02:27.351Z,3.83
2023-05-02T19:04:56.442Z,4.78
2023-05-02T19:07:24.609Z,4.65
2023-05-02T19:09:52.502Z,4.32
2023-05-02T19:12:20.316Z,4.00
2023-05-02T19:14:50.341Z,3.97
2023-05-02T19:17:18.287Z,4.53
2023-05-02T19:19:48.166Z,4.15
2023-05-02T19:22:17.588Z,4.07
2023-05-02T19:24:45.571Z,4.40
2023-05-02T19:27:13.425Z,4.88
2023-05-02T19:29:41.399Z,4.32
2023-05-02T19:32:09.797Z,4.53
2023-05-02T19:34:37.954Z,4.32
2023-05-02T19:37:06.144Z,3.90
2023-05-02T19:39:35.320Z,3.60
2023-05-02T19:42:03.600Z,3.97
2023-05-02T19:44:31.365Z,3.78
2023-05-02T19:47:01.385Z,3.15
2023-05-02T19:49:29.124Z,4.40
2023-05-02T19:51:56.965Z,3.60
2023-05-02T19:54:24.798Z,5.05
2023-05-02T19:56:54.118Z,3.60
2023-05-02T19:59:21.855Z,3.00
2023-05-02T20:01:49.886Z,3.65
2023-05-02T20:04:17.942Z,2.72
2023-05-02T20:06:45.817Z,3.35
2023-05-02T20:09:13.859Z,2.78
2023-05-02T20:11:41.583Z,2.90
2023-05-02T20:14:10.964Z,2.70
2023-05-02T20:16:38.799Z,3.78
2023-05-02T20:19:06.622Z,3.28
2023-05-02T20:21:34.389Z,3.58
2023-05-02T20:24:02.379Z,3.47
2023-05-02T20:26:31.315Z,2.92
2023-05-02T20:28:59.597Z,3.83
2023-05-02T20:31:28.704Z,4.03
2023-05-02T20:33:56.776Z,4.88
2023-05-02T20:36:24.671Z,5.63
2023-05-02T20:38:52.569Z,5.00
2023-05-02T20:41:21.360Z,5.53
2023-05-02T20:43:49.801Z,5.07
2023-05-02T20:46:19.024Z,4.82
2023-05-02T20:48:48.538Z,4.45
2023-05-02T20:51:16.643Z,4.93
2023-05-02T20:53:44.759Z,4.18
2023-05-02T20:56:12.562Z,5.00
2023-05-02T20:58:40.358Z,4.60
2023-05-02T21:01:08.156Z,4.60
2023-05-02T21:03:39.279Z,4.18
2023-05-02T21:06:08.508Z,4.35
2023-05-02T21:08:36.466Z,4.20
2023-05-02T21:11:04.497Z,3.92
2023-05-02T21:13:32.227Z,4.45
2023-05-02T21:16:00.317Z,3.58
2023-05-02T21:18:28.097Z,4.45
2023-05-02T21:20:56.095Z,3.92
2023-05-02T21:23:26.227Z,4.53
2023-05-02T21:25:55.220Z,4.03
2023-05-02T21:28:22.944Z,3.70
2023-05-02T21:30:50.701Z,3.67
2023-05-02T21:33:18.515Z,4.30
2023-05-02T21:35:46.399Z,3.47
2023-05-02T21:38:14.394Z,3.90
2023-05-02T21:40:43.693Z,3.17
2023-05-02T21:43:11.477Z,3.70
2023-05-02T21:45:44.338Z,4.07
2023-05-02T21:48:12.467Z,3.53
2023-05-02T21:50:40.536Z,3.90
2023-05-02T21:53:08.353Z,4.70
2023-05-02T21:55:37.711Z,4.20
2023-05-02T21:58:07.268Z,3.63
2023-05-02T22:00:35.080Z,4.32
2023-05-02T22:03:07.541Z,4.63
2023-05-02T22:05:35.949Z,4.93
2023-05-02T22:08:03.817Z,4.18
2023-05-02T22:10:31.804Z,4.15
2023-05-02T22:12:59.574Z,4.20
2023-05-02T22:15:29.168Z,4.55
2023-05-02T22:17:57.368Z,4.68
2023-05-02T22:20:26.147Z,4.25
2023-05-02T22:22:54.529Z,4.13
2023-05-02T22:25:22.383Z,3.78
2023-05-02T22:27:50.138Z,3.67
2023-05-02T22:30:18.215Z,4.25
2023-05-02T22:32:47.392Z,4.30
2023-05-02T22:35:15.409Z,3.88
2023-05-02T22:37:43.495Z,3.90
2023-05-02T22:40:12.642Z,4.05
2023-05-02T22:42:40.363Z,3.75
2023-05-02T22:45:09.537Z,3.83
2023-05-02T22:47:37.460Z,3.83
2023-05-02T22:50:11.003Z,3.95
2023-05-02T22:52:39.205Z,3.25
2023-05-02T22:55:09.462Z,3.70
2023-05-02T22:57:37.525Z,4.05
2023-05-02T23:00:07.588Z,4.13
2023-05-02T23:02:35.422Z,3.17
2023-05-02T23:05:03.495Z,4.38
2023-05-02T23:07:32.562Z,4.63
2023-05-02T23:10:01.184Z,3.85
2023-05-02T23:12:29.227Z,4.72
2023-05-02T23:14:57.295Z,4.10
2023-05-02T23:17:25.088Z,3.45
2023-05-02T23:19:53.091Z,4.28
2023-05-02T23:22:20.829Z,4.10
2023-05-02T23:24:50.160Z,3.40
2023-05-02T23:27:17.903Z,3.40
2023-05-02T23:29:46.375Z,3.80
2023-05-02T23:32:14.186Z,3.38
2023-05-02T23:34:42.222Z,4.05
2023-05-02T23:37:10.320Z,3.50
2023-05-02T23:39:38.485Z,3.78
2023-05-02T23:42:07.746Z,3.47
2023-05-02T23:44:35.821Z,3.55
2023-05-02T23:47:03.705Z,3.97
2023-05-02T23:49:31.816Z,3.92
2023-05-02T23:51:59.875Z,4.45
2023-05-02T23:54:31.727Z,3.92
2023-05-02T23:57:00.586Z,4.30
2023-05-02T23:59:29.828Z,4.50
